createdAt,value
2023-03-27T00:01:44.369Z,1.05
2023-03-27T00:04:11.702Z,1.30
2023-03-27T00:06:45.690Z,0.90
2023-03-27T00:09:13.112Z,1.40
2023-03-27T00:11:40.597Z,1.20
2023-03-27T00:14:07.891Z,0.85
2023-03-27T00:16:35.218Z,0.82
2023-03-27T00:19:02.499Z,0.68
2023-03-27T00:21:29.839Z,1.10
2023-03-27T00:23:57.180Z,0.80
2023-03-27T00:26:24.503Z,1.10
2023-03-27T00:28:52.873Z,1.00
2023-03-27T00:31:20.272Z,0.93
2023-03-27T00:33:47.591Z,1.05
2023-03-27T00:36:15.440Z,1.17
2023-03-27T00:38:43.898Z,0.80
2023-03-27T00:41:11.479Z,0.85
2023-03-27T00:43:45.425Z,1.20
2023-03-27T00:46:16.051Z,0.70
2023-03-27T00:48:44.075Z,0.60
2023-03-27T00:51:11.544Z,0.73
2023-03-27T00:53:38.923Z,0.70
2023-03-27T00:56:07.794Z,0.70
2023-03-27T00:58:49.019Z,1.25
2023-03-27T01:01:16.763Z,0.80
2023-03-27T01:03:45.595Z,1.00
2023-03-27T01:06:14.148Z,1.15
2023-03-27T01:08:41.880Z,1.10
2023-03-27T01:11:15.470Z,0.93
2023-03-27T01:14:05.634Z,0.80
2023-03-27T01:16:56.219Z,0.90
2023-03-27T01:19:52.038Z,0.80
2023-03-27T01:22:31.727Z,0.70
2023-03-27T01:25:08.458Z,0.80
2023-03-27T01:27:54.853Z,0.80
2023-03-27T01:30:31.663Z,0.80
2023-03-27T01:33:21.601Z,0.85
2023-03-27T01:36:08.433Z,0.60
2023-03-27T01:39:01.105Z,0.70
2023-03-27T01:42:10.845Z,0.70
2023-03-27T01:45:07.004Z,0.60
2023-03-27T01:47:40.548Z,1.17
2023-03-27T01:50:13.152Z,0.60
2023-03-27T01:52:42.171Z,1.05
2023-03-27T01:55:12.493Z,0.90
2023-03-27T01:57:48.766Z,0.82
2023-03-27T02:00:21.907Z,1.00
2023-03-27T02:03:16.777Z,1.00
2023-03-27T02:06:21.642Z,0.95
2023-03-27T02:08:54.664Z,0.80
2023-03-27T02:11:23.382Z,0.77
2023-03-27T02:13:53.404Z,0.90
2023-03-27T02:16:26.764Z,1.00
2023-03-27T02:18:59.930Z,1.10
2023-03-27T02:21:27.979Z,0.90
2023-03-27T02:24:02.050Z,0.80
2023-03-27T02:26:29.888Z,1.15
2023-03-27T02:29:18.746Z,1.10
2023-03-27T02:31:52.371Z,1.20
2023-03-27T02:34:50.473Z,1.00
2023-03-27T02:37:39.656Z,0.95
2023-03-27T02:40:22.866Z,1.27
2023-03-27T02:43:27.090Z,1.30
2023-03-27T02:46:04.605Z,1.65
2023-03-27T02:48:45.723Z,1.30
2023-03-27T02:51:15.498Z,1.55
2023-03-27T02:53:52.675Z,1.40
2023-03-27T02:56:20.286Z,1.23
2023-03-27T02:58:57.349Z,2.67
2023-03-27T03:01:50.778Z,1.30
2023-03-27T03:04:28.520Z,1.33
2023-03-27T03:07:06.583Z,1.40
2023-03-27T03:09:34.712Z,1.15
2023-03-27T03:12:08.633Z,1.40
2023-03-27T03:14:41.101Z,1.30
2023-03-27T03:17:09.092Z,1.35
2023-03-27T03:19:37.318Z,1.58
2023-03-27T03:22:06.035Z,1.55
2023-03-27T03:24:37.630Z,1.90
2023-03-27T03:27:05.910Z,1.20
2023-03-27T03:29:44.344Z,1.38
2023-03-27T03:32:23.409Z,1.20
2023-03-27T03:34:52.645Z,1.05
2023-03-27T03:37:20.640Z,1.13
2023-03-27T03:39:47.952Z,1.30
2023-03-27T03:42:22.848Z,1.00
2023-03-27T03:44:53.043Z,1.40
2023-03-27T03:47:22.371Z,1.10
2023-03-27T03:49:50.541Z,1.30
2023-03-27T03:52:18.527Z,1.00
2023-03-27T03:54:46.843Z,1.38
2023-03-27T03:57:14.595Z,1.20
2023-03-27T03:59:43.499Z,1.10
2023-03-27T04:02:30.442Z,1.10
2023-03-27T04:05:08.452Z,1.10
2023-03-27T04:07:37.253Z,1.38
2023-03-27T04:10:42.791Z,1.13
2023-03-27T04:13:20.074Z,1.17
2023-03-27T04:15:57.185Z,1.20
2023-03-27T04:18:33.024Z,0.77
2023-03-27T04:21:03.892Z,0.82
2023-03-27T04:23:31.340Z,0.80
2023-03-27T04:26:00.502Z,0.70
2023-03-27T04:28:37.332Z,0.57
2023-03-27T04:31:24.539Z,0.67
2023-03-27T04:34:22.316Z,0.70
2023-03-27T04:37:05.140Z,0.80
2023-03-27T04:39:37.233Z,1.00
2023-03-27T04:42:04.569Z,0.90
2023-03-27T04:44:32.272Z,0.70
2023-03-27T04:47:02.349Z,1.00
2023-03-27T04:49:30.079Z,1.08
2023-03-27T04:52:06.826Z,0.80
2023-03-27T04:54:34.625Z,1.00
2023-03-27T04:57:03.788Z,0.90
2023-03-27T04:59:32.174Z,1.10
2023-03-27T05:02:33.815Z,1.13
2023-03-27T05:05:14.591Z,1.20
2023-03-27T05:07:45.253Z,1.23
2023-03-27T05:10:21.833Z,1.13
2023-03-27T05:12:51.910Z,0.93
2023-03-27T05:15:19.415Z,0.90
2023-03-27T05:17:53.385Z,1.10
2023-03-27T05:20:24.085Z,1.52
2023-03-27T05:22:55.542Z,1.40
2023-03-27T05:25:26.112Z,1.23
2023-03-27T05:27:54.742Z,1.00
2023-03-27T05:30:27.048Z,0.70
2023-03-27T05:33:09.415Z,0.80
2023-03-27T05:35:38.146Z,0.70
2023-03-27T05:38:06.681Z,0.77
2023-03-27T05:40:40.138Z,0.80
2023-03-27T05:43:08.492Z,1.00
2023-03-27T05:45:37.538Z,1.02
2023-03-27T05:48:07.500Z,1.00
2023-03-27T05:50:41.870Z,1.20
2023-03-27T05:53:18.849Z,1.07
2023-03-27T05:56:09.746Z,0.70
2023-03-27T05:58:49.447Z,0.55
2023-03-27T06:01:16.885Z,0.70
2023-03-27T06:03:45.786Z,0.98
2023-03-27T06:06:28.995Z,0.60
2023-03-27T06:09:20.451Z,0.70
2023-03-27T06:12:23.326Z,0.88
2023-03-27T06:18:18.196Z,1.60
2023-03-27T06:21:01.065Z,1.63
2023-03-27T06:23:50.632Z,1.58
2023-03-27T06:26:26.564Z,1.50
2023-03-27T06:29:01.192Z,1.30
2023-03-27T06:31:48.337Z,1.10
2023-03-27T06:34:27.803Z,0.93
2023-03-27T06:37:09.073Z,0.95
2023-03-27T06:39:41.430Z,0.60
2023-03-27T06:42:09.153Z,0.88
2023-03-27T06:44:52.006Z,0.88
2023-03-27T06:47:54.686Z,0.60
2023-03-27T06:50:33.172Z,0.70
2023-03-27T06:53:15.918Z,0.80
2023-03-27T06:55:51.490Z,0.70
2023-03-27T06:58:20.928Z,0.68
2023-03-27T07:00:50.760Z,0.60
2023-03-27T07:03:20.812Z,0.80
2023-03-27T07:06:25.336Z,0.43
2023-03-27T07:08:58.172Z,0.70
2023-03-27T07:11:26.346Z,0.60
2023-03-27T07:13:56.676Z,0.60
2023-03-27T07:16:28.536Z,0.80
2023-03-27T07:18:59.426Z,0.63
2023-03-27T07:21:29.443Z,0.70
2023-03-27T07:23:59.830Z,0.70
2023-03-27T07:26:36.671Z,0.50
2023-03-27T07:29:19.300Z,0.60
2023-03-27T07:34:29.856Z,0.53
2023-03-27T07:37:23.183Z,0.60
2023-03-27T07:40:14.925Z,0.70
2023-03-27T07:42:54.929Z,0.63
2023-03-27T07:45:22.875Z,0.60
2023-03-27T07:47:52.670Z,0.60
2023-03-27T07:50:21.954Z,0.60
2023-03-27T07:52:51.534Z,0.50
2023-03-27T07:55:20.066Z,0.65
2023-03-27T07:58:02.302Z,0.50
2023-03-27T08:00:34.181Z,0.60
2023-03-27T08:03:10.752Z,0.60
2023-03-27T08:05:43.493Z,0.50
2023-03-27T08:08:13.894Z,0.50
2023-03-27T08:10:57.206Z,0.50
2023-03-27T08:13:26.759Z,0.50
2023-03-27T08:16:07.120Z,0.50
2023-03-27T08:18:40.149Z,0.80
2023-03-27T08:21:09.284Z,0.70
2023-03-27T08:23:43.016Z,0.50
2023-03-27T08:26:23.754Z,0.50
2023-03-27T08:28:58.740Z,0.57
2023-03-27T08:31:32.360Z,0.55
2023-03-27T08:34:03.477Z,0.80
2023-03-27T08:36:46.746Z,0.50
2023-03-27T08:39:19.526Z,0.57
2023-03-27T08:42:00.334Z,0.43
2023-03-27T08:44:32.674Z,0.50
2023-03-27T08:47:10.016Z,0.82
2023-03-27T08:49:57.479Z,0.50
2023-03-27T08:52:47.230Z,0.52
2023-03-27T08:55:42.882Z,0.90
2023-03-27T08:58:42.572Z,0.73
2023-03-27T09:01:38.533Z,0.50
2023-03-27T09:04:37.658Z,0.70
2023-03-27T09:07:29.772Z,0.80
2023-03-27T09:10:43.428Z,0.70
2023-03-27T09:13:36.776Z,0.80
2023-03-27T09:16:23.326Z,0.60
2023-03-27T09:19:16.118Z,0.60
2023-03-27T09:22:01.311Z,0.70
2023-03-27T09:24:59.819Z,0.80
2023-03-27T09:28:15.575Z,0.60
2023-03-27T09:30:49.225Z,0.90
2023-03-27T09:33:31.383Z,0.80
2023-03-27T09:35:59.655Z,0.80
2023-03-27T09:38:34.264Z,0.90
2023-03-27T09:41:08.388Z,0.73
2023-03-27T09:44:00.081Z,0.80
2023-03-27T09:46:27.929Z,1.00
2023-03-27T09:49:18.568Z,0.73
2023-03-27T09:51:56.935Z,0.67
2023-03-27T09:54:53.182Z,0.70
2023-03-27T09:57:29.480Z,0.80
2023-03-27T10:00:23.743Z,0.80
2023-03-27T10:03:04.860Z,0.70
2023-03-27T10:05:35.550Z,0.87
2023-03-27T10:08:04.125Z,0.70
2023-03-27T10:10:46.495Z,0.88
2023-03-27T10:13:29.658Z,0.73
2023-03-27T10:16:02.462Z,1.08
2023-03-27T10:18:44.995Z,0.80
2023-03-27T10:21:27.016Z,0.80
2023-03-27T10:24:06.500Z,0.85
2023-03-27T10:26:54.855Z,0.90
2023-03-27T10:29:28.358Z,0.82
2023-03-27T10:32:00.363Z,0.70
2023-03-27T10:34:58.290Z,0.65
2023-03-27T10:37:31.469Z,0.68
2023-03-27T10:40:25.792Z,1.00
2023-03-27T10:42:58.044Z,0.80
2023-03-27T10:45:25.745Z,0.80
2023-03-27T10:47:59.867Z,0.80
2023-03-27T10:50:45.748Z,0.70
2023-03-27T10:53:25.390Z,0.65
2023-03-27T10:56:10.224Z,0.70
2023-03-27T10:58:49.386Z,0.60
2023-03-27T11:01:28.486Z,0.80
2023-03-27T11:04:09.400Z,0.65
2023-03-27T11:06:46.629Z,0.70
2023-03-27T11:09:24.575Z,0.93
2023-03-27T11:12:11.729Z,0.57
2023-03-27T11:15:11.797Z,0.80
2023-03-27T11:17:43.014Z,0.50
2023-03-27T11:20:33.155Z,1.25
2023-03-27T11:23:58.990Z,0.90
2023-03-27T11:26:46.078Z,0.83
2023-03-27T11:29:21.386Z,0.63
2023-03-27T11:31:53.110Z,0.70
2023-03-27T11:34:57.931Z,0.68
2023-03-27T11:38:02.099Z,0.75
2023-03-27T11:40:45.988Z,0.83
2023-03-27T11:43:14.706Z,0.70
2023-03-27T11:45:58.313Z,0.50
2023-03-27T11:49:03.061Z,0.60
2023-03-27T11:51:48.799Z,0.70
2023-03-27T11:54:19.538Z,0.50
2023-03-27T11:56:55.821Z,0.40
2023-03-27T11:59:54.351Z,0.40
2023-03-27T12:02:29.201Z,0.70
2023-03-27T12:05:21.844Z,0.68
2023-03-27T12:08:31.895Z,0.60
2023-03-27T12:11:00.784Z,0.50
2023-03-27T12:13:47.834Z,0.75
2023-03-27T12:16:52.249Z,0.60
2023-03-27T12:19:47.471Z,0.80
2023-03-27T12:22:30.444Z,0.60
2023-03-27T12:25:23.963Z,0.50
2023-03-27T12:28:22.687Z,1.23
2023-03-27T12:31:47.976Z,0.90
2023-03-27T12:34:41.806Z,0.80
2023-03-27T12:37:11.104Z,0.70
2023-03-27T12:39:48.419Z,0.60
2023-03-27T12:42:48.767Z,0.80
2023-03-27T12:45:19.723Z,0.80
2023-03-27T12:48:20.406Z,0.75
2023-03-27T12:50:52.794Z,0.70
2023-03-27T12:53:48.538Z,0.90
2023-03-27T12:56:19.618Z,1.00
2023-03-27T12:58:51.917Z,1.00
2023-03-27T13:01:52.328Z,0.80
2023-03-27T13:05:08.632Z,1.00
2023-03-27T13:07:53.426Z,1.00
2023-03-27T13:11:09.866Z,0.90
2023-03-27T13:14:16.408Z,0.95
2023-03-27T13:17:21.176Z,1.27
2023-03-27T13:19:58.314Z,1.20
2023-03-27T13:23:01.212Z,1.10
2023-03-27T13:26:04.197Z,1.38
2023-03-27T13:28:38.449Z,1.20
2023-03-27T13:31:47.307Z,1.02
2023-03-27T13:34:26.912Z,1.53
2023-03-27T13:37:09.484Z,1.27
2023-03-27T13:40:10.361Z,1.45
2023-03-27T13:42:42.330Z,1.30
2023-03-27T13:45:32.161Z,1.40
2023-03-27T13:48:44.009Z,1.37
2023-03-27T13:51:33.007Z,1.27
2023-03-27T13:54:26.314Z,1.80
2023-03-27T13:57:09.539Z,1.42
2023-03-27T14:00:19.254Z,1.27
2023-03-27T14:02:58.995Z,1.40
2023-03-27T14:05:57.080Z,1.60
2023-03-27T14:08:38.773Z,1.40
2023-03-27T14:11:37.336Z,1.55
2023-03-27T14:14:19.805Z,1.38
2023-03-27T14:16:56.530Z,1.50
2023-03-27T14:19:32.911Z,1.42
2023-03-27T14:22:03.664Z,1.55
2023-03-27T14:24:44.495Z,1.50
2023-03-27T14:27:28.455Z,2.00
2023-03-27T14:30:09.036Z,1.70
2023-03-27T14:32:40.148Z,1.58
2023-03-27T14:35:29.739Z,1.50
2023-03-27T14:38:07.869Z,1.42
2023-03-27T14:40:47.688Z,1.45
2023-03-27T14:43:19.565Z,1.13
2023-03-27T14:45:52.681Z,1.42
2023-03-27T14:48:26.300Z,1.48
2023-03-27T14:50:55.559Z,1.52
2023-03-27T14:53:26.553Z,1.52
2023-03-27T14:56:11.759Z,1.80
2023-03-27T14:59:02.527Z,1.60
2023-03-27T15:01:42.944Z,1.60
2023-03-27T15:04:12.161Z,1.52
2023-03-27T15:06:41.877Z,1.92
2023-03-27T15:09:19.654Z,1.70
2023-03-27T15:12:05.783Z,2.15
2023-03-27T15:14:33.800Z,1.83
2023-03-27T15:17:08.850Z,1.60
2023-03-27T15:19:45.818Z,1.45
2023-03-27T15:22:35.485Z,1.80
2023-03-27T15:25:05.474Z,2.08
2023-03-27T15:27:38.351Z,2.20
2023-03-27T15:30:37.895Z,2.00
2023-03-27T15:33:06.003Z,1.52
2023-03-27T15:35:45.245Z,1.80
2023-03-27T15:38:14.253Z,2.13
2023-03-27T15:40:44.313Z,1.95
2023-03-27T15:43:14.647Z,2.47
2023-03-27T15:45:57.335Z,1.90
2023-03-27T15:48:40.428Z,1.87
2023-03-27T15:51:18.723Z,2.00
2023-03-27T15:53:59.147Z,1.80
2023-03-27T15:56:43.002Z,1.83
2023-03-27T15:59:14.221Z,1.42
2023-03-27T16:01:55.371Z,1.80
2023-03-27T16:04:27.994Z,1.83
2023-03-27T16:07:06.191Z,2.08
2023-03-27T16:09:40.091Z,1.83
2023-03-27T16:12:10.188Z,1.70
2023-03-27T16:14:40.887Z,1.97
2023-03-27T16:17:25.223Z,1.95
2023-03-27T16:20:07.442Z,1.70
2023-03-27T16:22:37.144Z,1.38
2023-03-27T16:25:08.877Z,1.60
2023-03-27T16:27:49.907Z,1.70
2023-03-27T16:30:32.459Z,1.80
2023-03-27T16:33:00.341Z,1.60
2023-03-27T16:35:28.611Z,1.77
2023-03-27T16:37:56.623Z,1.67
2023-03-27T16:40:24.530Z,1.77
2023-03-27T16:42:51.840Z,1.60
2023-03-27T16:45:19.258Z,1.40
2023-03-27T16:47:50.866Z,1.58
2023-03-27T16:50:22.041Z,1.75
2023-03-27T16:52:49.404Z,1.30
2023-03-27T16:55:17.455Z,1.60
2023-03-27T16:57:46.363Z,1.35
2023-03-27T17:00:15.190Z,1.70
2023-03-27T17:02:44.598Z,1.58
2023-03-27T17:05:12.149Z,1.80
2023-03-27T17:07:41.880Z,1.73
2023-03-27T17:10:10.509Z,1.52
2023-03-27T17:12:38.158Z,1.67
2023-03-27T17:15:06.426Z,1.70
2023-03-27T17:17:33.774Z,1.60
2023-03-27T17:20:01.772Z,1.75
2023-03-27T17:22:30.266Z,1.60
2023-03-27T17:25:01.265Z,1.70
2023-03-27T17:27:28.748Z,1.30
2023-03-27T17:29:56.614Z,1.50
2023-03-27T17:32:27.583Z,1.50
2023-03-27T17:34:55.387Z,1.58
2023-03-27T17:37:23.039Z,1.50
2023-03-27T17:39:50.633Z,1.27
2023-03-27T17:42:18.034Z,1.80
2023-03-27T17:44:45.509Z,1.40
2023-03-27T17:47:13.391Z,1.63
2023-03-27T17:49:43.267Z,1.70
2023-03-27T17:52:12.267Z,1.80
2023-03-27T17:54:40.051Z,1.90
2023-03-27T17:57:07.482Z,1.70
2023-03-27T17:59:36.674Z,1.60
2023-03-27T18:02:04.233Z,1.77
2023-03-27T18:04:31.679Z,2.10
2023-03-27T18:06:59.021Z,1.30
2023-03-27T18:09:26.463Z,1.50
2023-03-27T18:11:54.020Z,1.70
2023-03-27T18:14:21.411Z,1.75
2023-03-27T18:16:48.836Z,1.38
2023-03-27T18:19:16.309Z,1.80
2023-03-27T18:21:43.630Z,1.40
2023-03-27T18:24:11.399Z,1.45
2023-03-27T18:26:38.649Z,1.30
2023-03-27T18:29:06.009Z,1.42
2023-03-27T18:31:33.414Z,1.60
2023-03-27T18:34:01.188Z,1.45
2023-03-27T18:36:28.622Z,1.50
2023-03-27T18:38:56.712Z,1.58
2023-03-27T18:41:24.172Z,1.73
2023-03-27T18:43:51.488Z,1.70
2023-03-27T18:46:18.846Z,1.60
2023-03-27T18:48:46.399Z,1.63
2023-03-27T18:51:14.003Z,1.50
2023-03-27T18:53:41.328Z,1.52
2023-03-27T18:56:08.731Z,1.50
2023-03-27T18:58:36.325Z,1.63
2023-03-27T19:01:10.184Z,1.40
2023-03-27T19:03:39.116Z,1.35
2023-03-27T19:06:07.509Z,1.00
2023-03-27T19:08:37.720Z,1.10
2023-03-27T19:11:06.166Z,1.08
2023-03-27T19:13:51.917Z,1.30
2023-03-27T19:16:30.823Z,1.02
2023-03-27T19:19:36.374Z,1.08
2023-03-27T19:22:26.903Z,1.30
2023-03-27T19:25:00.556Z,1.30
2023-03-27T19:27:28.594Z,1.05
2023-03-27T19:30:07.589Z,1.35
2023-03-27T19:32:34.968Z,1.27
2023-03-27T19:35:03.216Z,1.00
2023-03-27T19:37:31.429Z,0.90
2023-03-27T19:39:59.688Z,1.20
2023-03-27T19:42:28.611Z,0.98
2023-03-27T19:44:55.976Z,0.93
2023-03-27T19:47:23.310Z,1.10
2023-03-27T19:49:50.662Z,1.08
2023-03-27T19:52:19.927Z,1.10
2023-03-27T19:54:47.323Z,1.20
2023-03-27T19:57:14.842Z,1.00
2023-03-27T19:59:42.163Z,1.10
2023-03-27T20:02:11.769Z,0.80
2023-03-27T20:04:39.348Z,1.10
2023-03-27T20:07:10.168Z,1.05
2023-03-27T20:09:37.591Z,1.00
2023-03-27T20:12:05.608Z,1.17
2023-03-27T20:14:32.887Z,1.10
2023-03-27T20:17:00.369Z,0.90
2023-03-27T20:19:30.740Z,1.23
2023-03-27T20:22:00.765Z,1.00
2023-03-27T20:24:29.041Z,0.97
2023-03-27T20:26:59.573Z,1.10
2023-03-27T20:29:26.985Z,0.95
2023-03-27T20:31:54.412Z,1.08
2023-03-27T20:34:22.885Z,1.05
2023-03-27T20:36:53.360Z,0.70
2023-03-27T20:39:44.780Z,1.05
2023-03-27T20:42:15.460Z,1.05
2023-03-27T20:44:46.515Z,1.10
2023-03-27T20:47:15.209Z,0.90
2023-03-27T20:49:46.576Z,0.90
2023-03-27T20:52:15.718Z,0.63
2023-03-27T20:54:43.125Z,1.00
2023-03-27T20:57:12.003Z,1.17
2023-03-27T20:59:39.432Z,0.90
2023-03-27T21:02:06.889Z,0.90
2023-03-27T21:04:34.341Z,0.98
2023-03-27T21:07:01.711Z,1.10
2023-03-27T21:09:29.050Z,0.90
2023-03-27T21:11:56.388Z,1.10
2023-03-27T21:14:23.718Z,0.93
2023-03-27T21:16:51.315Z,0.90
2023-03-27T21:19:21.308Z,1.20
2023-03-27T21:21:49.082Z,1.40
2023-03-27T21:24:16.523Z,0.80
2023-03-27T21:26:43.783Z,1.17
2023-03-27T21:29:11.284Z,1.02
2023-03-27T21:31:39.350Z,1.15
2023-03-27T21:34:06.900Z,1.05
2023-03-27T21:36:34.519Z,1.10
2023-03-27T21:39:01.878Z,0.90
2023-03-27T21:41:29.289Z,1.10
2023-03-27T21:43:56.572Z,1.27
2023-03-27T21:46:23.924Z,0.90
2023-03-27T21:48:51.453Z,1.02
2023-03-27T21:51:18.944Z,0.80
2023-03-27T21:53:46.374Z,1.13
2023-03-27T21:56:13.644Z,1.10
2023-03-27T21:58:40.980Z,1.10
2023-03-27T22:01:08.343Z,1.40
2023-03-27T22:03:35.653Z,1.20
2023-03-27T22:06:12.243Z,1.05
2023-03-27T22:08:41.335Z,1.20
2023-03-27T22:11:08.728Z,1.00
2023-03-27T22:13:36.663Z,1.00
2023-03-27T22:16:11.956Z,0.80
2023-03-27T22:18:39.437Z,1.08
2023-03-27T22:21:16.965Z,0.90
2023-03-27T22:23:44.338Z,0.98
2023-03-27T22:26:11.885Z,1.30
2023-03-27T22:28:39.206Z,0.97
2023-03-27T22:31:07.653Z,1.10
2023-03-27T22:33:36.351Z,0.90
2023-03-27T22:36:04.668Z,1.20
2023-03-27T22:38:35.063Z,1.00
2023-03-27T22:41:04.756Z,0.90
2023-03-27T22:43:32.074Z,1.20
2023-03-27T22:46:06.308Z,0.93
2023-03-27T22:48:33.917Z,1.02
2023-03-27T22:51:01.281Z,1.10
2023-03-27T22:53:28.980Z,0.90
2023-03-27T22:55:57.207Z,0.93
2023-03-27T22:58:25.025Z,1.00
2023-03-27T23:00:52.714Z,1.15
2023-03-27T23:03:20.636Z,1.20
2023-03-27T23:05:49.257Z,1.10
2023-03-27T23:08:17.437Z,1.00
2023-03-27T23:10:44.840Z,0.93
2023-03-27T23:13:12.452Z,1.10
2023-03-27T23:15:39.732Z,1.00
2023-03-27T23:18:07.060Z,1.10
2023-03-27T23:20:34.384Z,1.30
2023-03-27T23:23:01.606Z,1.10
2023-03-27T23:25:28.911Z,1.17
2023-03-27T23:27:56.281Z,0.90
2023-03-27T23:30:23.563Z,0.90
2023-03-27T23:32:50.887Z,1.20
2023-03-27T23:35:18.248Z,1.10
2023-03-27T23:37:47.785Z,1.27
2023-03-27T23:40:15.737Z,1.20
2023-03-27T23:42:43.005Z,1.30
2023-03-27T23:45:11.892Z,1.25
2023-03-27T23:47:39.324Z,1.20
2023-03-27T23:50:06.928Z,1.23
2023-03-27T23:52:34.261Z,1.35
2023-03-27T23:55:01.523Z,1.07
2023-03-27T23:57:28.822Z,1.30
2023-03-27T23:59:56.477Z,0.90
